createdAt,value
2018-08-28T00:01:25.857Z,15.20
2018-08-28T00:03:57.065Z,15.22
2018-08-28T00:06:28.039Z,15.12
2018-08-28T00:09:00.323Z,15.15
2018-08-28T00:11:32.575Z,15.16
2018-08-28T00:14:03.405Z,15.07
2018-08-28T00:16:37.317Z,15.07
2018-08-28T00:19:08.617Z,15.16
2018-08-28T00:21:48.597Z,15.17
2018-08-28T00:27:24.982Z,15.12
2018-08-28T00:32:44.905Z,15.15
2018-08-28T00:35:15.432Z,15.18
2018-08-28T00:37:47.430Z,15.14
2018-08-28T00:40:18.014Z,15.16
2018-08-28T00:42:48.750Z,15.13
2018-08-28T00:45:18.890Z,15.10
2018-08-28T00:47:49.149Z,15.20
2018-08-28T00:50:19.815Z,15.20
2018-08-28T00:52:56.615Z,15.17
2018-08-28T00:55:32.382Z,15.14
2018-08-28T01:00:50.757Z,15.08
2018-08-28T01:03:21.033Z,14.93
2018-08-28T01:05:51.051Z,14.97
2018-08-28T01:08:21.191Z,14.80
2018-08-28T01:10:52.868Z,14.87
2018-08-28T01:13:22.958Z,14.91
2018-08-28T01:15:54.803Z,14.92
2018-08-28T01:18:25.091Z,15.06
2018-08-28T01:20:56.062Z,14.96
2018-08-28T01:23:26.309Z,15.04
2018-08-28T01:25:56.552Z,15.16
2018-08-28T01:28:26.646Z,15.21
2018-08-28T01:30:57.514Z,15.12
2018-08-28T01:33:29.581Z,15.11
2018-08-28T01:35:59.583Z,15.11
2018-08-28T01:38:30.523Z,15.11
2018-08-28T01:41:00.529Z,14.98
2018-08-28T01:43:32.431Z,15.02
2018-08-28T01:46:02.323Z,14.96
2018-08-28T01:48:34.176Z,15.00
2018-08-28T01:51:05.014Z,15.02
2018-08-28T01:53:36.403Z,15.03
2018-08-28T01:56:06.432Z,14.90
2018-08-28T01:58:36.441Z,14.92
2018-08-28T02:01:07.496Z,14.99
2018-08-28T02:03:37.611Z,14.94
2018-08-28T02:06:07.899Z,14.97
2018-08-28T02:08:38.876Z,14.92
2018-08-28T02:11:10.881Z,14.78
2018-08-28T02:13:41.822Z,14.78
2018-08-28T02:16:12.329Z,14.82
2018-08-28T02:18:42.344Z,14.78
2018-08-28T02:21:14.829Z,14.80
2018-08-28T02:23:45.764Z,14.63
2018-08-28T02:26:17.229Z,14.83
2018-08-28T02:28:47.400Z,14.70
2018-08-28T02:31:17.327Z,14.70
2018-08-28T02:33:48.546Z,14.77
2018-08-28T02:36:18.798Z,14.71
2018-08-28T02:38:49.753Z,14.70
2018-08-28T02:41:20.843Z,14.83
2018-08-28T02:43:51.758Z,14.82
2018-08-28T02:46:22.491Z,14.89
2018-08-28T02:48:53.634Z,14.86
2018-08-28T02:51:24.503Z,14.73
2018-08-28T02:53:55.956Z,14.81
2018-08-28T02:56:26.244Z,14.83
2018-08-28T02:58:56.220Z,14.77
2018-08-28T03:01:27.588Z,14.70
2018-08-28T03:03:58.663Z,14.67
2018-08-28T03:06:28.241Z,14.64
2018-08-28T03:08:58.873Z,14.77
2018-08-28T03:11:30.703Z,14.74
2018-08-28T03:14:01.280Z,14.76
2018-08-28T03:16:32.232Z,14.70
2018-08-28T03:19:04.589Z,14.53
2018-08-28T03:21:37.003Z,14.58
2018-08-28T03:24:08.643Z,14.53
2018-08-28T03:26:39.721Z,14.54
2018-08-28T03:29:10.110Z,14.44
2018-08-28T03:31:40.403Z,14.36
2018-08-28T03:34:10.830Z,14.34
2018-08-28T03:36:41.015Z,14.50
2018-08-28T03:39:11.271Z,14.41
2018-08-28T03:41:41.381Z,14.28
2018-08-28T03:44:11.381Z,14.40
2018-08-28T03:46:41.452Z,14.39
2018-08-28T03:49:11.785Z,14.42
2018-08-28T03:51:41.863Z,14.44
2018-08-28T03:54:13.621Z,14.38
2018-08-28T03:56:46.540Z,14.48
2018-08-28T03:59:16.646Z,14.38
2018-08-28T04:01:46.740Z,14.51
2018-08-28T04:04:17.890Z,14.47
2018-08-28T04:06:48.155Z,14.30
2018-08-28T04:09:19.261Z,14.41
2018-08-28T04:11:50.963Z,14.52
2018-08-28T04:14:39.559Z,14.39
2018-08-28T04:17:12.002Z,14.52
2018-08-28T04:19:42.163Z,14.49
2018-08-28T04:22:13.549Z,14.49
2018-08-28T04:24:43.771Z,14.50
2018-08-28T04:27:14.604Z,14.47
2018-08-28T04:29:44.798Z,14.33
2018-08-28T04:32:17.709Z,14.32
2018-08-28T04:34:47.992Z,14.41
2018-08-28T04:37:18.548Z,14.33
2018-08-28T04:39:49.504Z,14.36
2018-08-28T04:42:21.247Z,14.42
2018-08-28T04:44:52.179Z,14.55
2018-08-28T04:47:22.734Z,14.50
2018-08-28T04:49:53.750Z,14.50
2018-08-28T04:52:24.662Z,14.43
2018-08-28T04:54:56.998Z,14.34
2018-08-28T04:57:27.360Z,14.42
2018-08-28T04:59:59.275Z,14.41
2018-08-28T05:02:34.980Z,14.50
2018-08-28T05:05:10.194Z,14.42
2018-08-28T05:07:40.475Z,14.44
2018-08-28T05:10:10.657Z,14.61
2018-08-28T05:12:41.935Z,14.56
2018-08-28T05:15:12.333Z,14.56
2018-08-28T05:17:42.659Z,14.57
2018-08-28T05:20:13.112Z,14.60
2018-08-28T05:22:44.555Z,14.59
2018-08-28T05:25:15.203Z,14.54
2018-08-28T05:27:45.980Z,14.54
2018-08-28T05:30:19.613Z,14.61
2018-08-28T05:32:51.032Z,14.68
2018-08-28T05:35:21.584Z,14.85
2018-08-28T05:37:52.157Z,14.76
2018-08-28T05:40:22.562Z,14.77
2018-08-28T05:42:52.884Z,14.81
2018-08-28T05:45:27.673Z,14.72
2018-08-28T05:47:58.643Z,14.85
2018-08-28T05:50:29.947Z,14.76
2018-08-28T05:53:04.282Z,14.81
2018-08-28T05:55:36.271Z,14.93
2018-08-28T05:58:08.491Z,14.86
2018-08-28T06:00:39.729Z,15.01
2018-08-28T06:03:12.155Z,14.96
2018-08-28T06:05:46.088Z,14.92
2018-08-28T06:08:19.129Z,15.01
2018-08-28T06:10:49.633Z,15.01
2018-08-28T06:13:21.293Z,15.02
2018-08-28T06:15:52.047Z,15.04
2018-08-28T06:18:23.396Z,14.89
2018-08-28T06:20:53.698Z,14.92
2018-08-28T06:23:24.572Z,15.07
2018-08-28T06:25:55.066Z,15.12
2018-08-28T06:28:25.585Z,15.18
2018-08-28T06:30:56.676Z,15.38
2018-08-28T06:33:39.917Z,15.27
2018-08-28T06:44:59.220Z,15.68
2018-08-28T06:59:52.625Z,16.21
2018-08-28T07:02:34.226Z,16.12
2018-08-28T07:05:10.838Z,16.20
2018-08-28T07:17:40.261Z,17.21
2018-08-28T07:20:17.545Z,17.30
2018-08-28T07:22:55.441Z,17.59
2018-08-28T07:25:32.970Z,17.57
2018-08-28T07:33:57.258Z,17.54
2018-08-28T07:36:29.694Z,17.66
2018-08-28T07:39:02.530Z,17.86
2018-08-28T07:41:46.763Z,18.09
2018-08-28T07:44:25.298Z,18.15
2018-08-28T07:49:41.413Z,18.14
2018-08-28T07:52:15.017Z,18.36
2018-08-28T07:54:47.047Z,18.67
2018-08-28T07:57:20.560Z,19.03
2018-08-28T07:59:53.747Z,19.12
2018-08-28T08:02:25.901Z,18.88
2018-08-28T08:04:57.996Z,19.15
2018-08-28T08:07:33.458Z,18.85
2018-08-28T08:10:07.037Z,18.91
2018-08-28T08:12:42.677Z,19.02
2018-08-28T08:49:47.592Z,18.90
2018-08-28T08:52:19.187Z,19.02
2018-08-28T08:54:50.133Z,18.99
2018-08-28T08:57:20.743Z,18.69
2018-08-28T08:59:51.161Z,18.77
2018-08-28T09:02:21.372Z,18.63
2018-08-28T09:04:52.571Z,18.62
2018-08-28T09:07:23.751Z,18.29
2018-08-28T09:09:55.661Z,18.43
2018-08-28T09:12:26.573Z,18.21
2018-08-28T09:14:59.377Z,18.23
2018-08-28T09:17:30.891Z,18.03
2018-08-28T09:20:03.706Z,17.42
2018-08-28T09:22:34.600Z,17.34
2018-08-28T09:25:06.610Z,17.25
2018-08-28T09:27:38.672Z,17.27
2018-08-28T09:30:11.089Z,17.37
2018-08-28T09:32:42.891Z,17.26
2018-08-28T09:35:14.829Z,17.47
2018-08-28T09:37:46.047Z,17.49
2018-08-28T09:42:56.778Z,17.77
2018-08-28T09:45:28.189Z,17.76
2018-08-28T09:48:05.931Z,17.78
2018-08-28T09:50:38.956Z,17.77
2018-08-28T09:53:11.492Z,18.03
2018-08-28T09:55:46.841Z,18.07
2018-08-28T09:58:19.619Z,18.28
2018-08-28T10:01:01.754Z,18.02
2018-08-28T10:03:34.467Z,17.95
2018-08-28T10:06:09.557Z,18.16
2018-08-28T10:08:41.204Z,18.35
2018-08-28T10:11:12.104Z,18.40
2018-08-28T10:13:43.690Z,18.12
2018-08-28T10:16:16.299Z,18.17
2018-08-28T10:18:53.011Z,18.52
2018-08-28T10:24:35.543Z,18.39
2018-08-28T10:27:08.668Z,18.61
2018-08-28T10:29:38.840Z,18.67
2018-08-28T10:32:09.176Z,18.67
2018-08-28T10:34:39.647Z,19.00
2018-08-28T10:37:09.943Z,19.16
2018-08-28T10:39:41.497Z,19.14
2018-08-28T10:42:11.594Z,19.17
2018-08-28T10:44:42.286Z,19.36
2018-08-28T10:47:12.771Z,19.43
2018-08-28T10:49:43.193Z,19.28
2018-08-28T10:52:13.514Z,19.55
2018-08-28T10:54:45.085Z,19.62
2018-08-28T10:57:15.691Z,19.55
2018-08-28T10:59:46.493Z,19.45
2018-08-28T11:02:16.669Z,19.31
2018-08-28T11:04:49.145Z,19.50
2018-08-28T11:07:19.552Z,19.72
2018-08-28T11:09:51.333Z,19.70
2018-08-28T11:12:21.553Z,19.62
2018-08-28T11:14:53.053Z,19.90
2018-08-28T11:17:23.204Z,20.10
2018-08-28T11:19:54.373Z,20.02
2018-08-28T11:22:25.028Z,20.22
2018-08-28T11:24:55.327Z,20.42
2018-08-28T11:27:27.547Z,20.47
2018-08-28T11:29:57.793Z,20.56
2018-08-28T11:32:29.414Z,20.60
2018-08-28T11:34:59.729Z,20.64
2018-08-28T11:37:29.949Z,20.60
2018-08-28T11:40:00.061Z,20.30
2018-08-28T11:42:30.752Z,20.31
2018-08-28T11:45:00.827Z,20.63
2018-08-28T11:47:30.991Z,20.83
2018-08-28T11:50:02.394Z,21.06
2018-08-28T11:52:32.694Z,21.13
2018-08-28T11:55:03.464Z,21.08
2018-08-28T11:57:33.671Z,20.73
2018-08-28T12:00:04.152Z,20.79
2018-08-28T12:02:34.866Z,20.56
2018-08-28T12:05:05.405Z,20.73
2018-08-28T12:07:35.516Z,20.64
2018-08-28T12:10:07.341Z,20.82
2018-08-28T12:12:39.340Z,20.82
2018-08-28T12:15:10.129Z,21.04
2018-08-28T12:17:40.519Z,20.91
2018-08-28T12:20:11.701Z,21.05
2018-08-28T12:22:41.921Z,21.06
2018-08-28T12:25:12.881Z,21.02
2018-08-28T12:27:43.404Z,20.98
2018-08-28T12:30:13.726Z,20.61
2018-08-28T12:32:43.856Z,20.75
2018-08-28T12:35:13.951Z,20.66
2018-08-28T12:37:44.512Z,20.46
2018-08-28T12:40:14.798Z,20.44
2018-08-28T12:42:45.379Z,20.56
2018-08-28T12:45:19.419Z,20.69
2018-08-28T12:47:49.659Z,20.46
2018-08-28T12:50:20.086Z,20.34
2018-08-28T12:52:50.461Z,20.42
2018-08-28T12:55:22.380Z,20.37
2018-08-28T12:57:53.134Z,20.38
2018-08-28T13:00:24.048Z,20.30
2018-08-28T13:02:54.310Z,20.12
2018-08-28T13:05:24.195Z,20.11
2018-08-28T13:07:55.680Z,19.94
2018-08-28T13:10:25.278Z,19.92
2018-08-28T13:12:54.918Z,19.85
2018-08-28T13:15:25.243Z,20.06
2018-08-28T13:17:54.977Z,20.00
2018-08-28T13:20:25.099Z,19.76
2018-08-28T13:22:55.522Z,19.69
2018-08-28T13:25:36.432Z,19.91
2018-08-28T13:28:10.849Z,20.13
2018-08-28T13:30:43.773Z,19.94
2018-08-28T13:33:14.187Z,20.17
2018-08-28T13:38:25.752Z,19.93
2018-08-28T13:40:57.027Z,19.93
2018-08-28T13:43:27.021Z,20.07
2018-08-28T13:45:58.947Z,20.17
2018-08-28T13:48:29.893Z,20.18
2018-08-28T13:51:00.213Z,20.19
2018-08-28T13:53:30.541Z,20.15
2018-08-28T13:56:01.388Z,20.05
2018-08-28T13:58:32.640Z,20.15
2018-08-28T14:01:03.140Z,20.43
2018-08-28T14:03:33.766Z,20.48
2018-08-28T14:06:04.401Z,20.70
2018-08-28T14:08:35.026Z,20.89
2018-08-28T14:11:05.304Z,20.83
2018-08-28T14:13:35.763Z,20.67
2018-08-28T14:16:06.255Z,20.68
2018-08-28T14:18:36.525Z,20.70
2018-08-28T14:21:09.802Z,20.40
2018-08-28T14:23:49.791Z,20.52
2018-08-28T14:26:30.559Z,20.64
2018-08-28T14:31:46.324Z,20.48
2018-08-28T14:34:22.726Z,20.69
2018-08-28T14:36:55.654Z,20.74
2018-08-28T14:39:28.172Z,20.72
2018-08-28T14:42:04.137Z,20.80
2018-08-28T14:44:42.802Z,20.41
2018-08-28T14:47:20.582Z,20.57
2018-08-28T14:49:55.825Z,20.58
2018-08-28T14:52:31.637Z,20.61
2018-08-28T14:55:02.123Z,20.70
2018-08-28T14:57:37.357Z,20.40
2018-08-28T15:00:10.924Z,20.13
2018-08-28T15:02:42.666Z,20.17
2018-08-28T15:05:13.912Z,20.38
2018-08-28T15:07:45.461Z,20.45
2018-08-28T15:10:17.015Z,20.37
2018-08-28T15:12:48.100Z,20.39
2018-08-28T15:15:19.160Z,20.08
2018-08-28T15:17:49.624Z,20.06
2018-08-28T15:20:23.053Z,20.08
2018-08-28T15:22:54.944Z,20.13
2018-08-28T15:25:28.624Z,20.14
2018-08-28T15:27:58.842Z,20.03
2018-08-28T15:30:45.794Z,19.85
2018-08-28T15:38:47.836Z,20.13
2018-08-28T15:44:03.227Z,19.83
2018-08-28T15:52:40.364Z,19.89
2018-08-28T15:58:10.806Z,20.06
2018-08-28T16:00:45.366Z,20.05
2018-08-28T16:03:26.009Z,20.14
2018-08-28T16:06:07.890Z,20.13
2018-08-28T16:08:41.146Z,20.11
2018-08-28T16:14:23.006Z,20.09
2018-08-28T16:17:12.198Z,20.04
2018-08-28T16:19:51.727Z,20.12
2018-08-28T16:25:26.988Z,19.84
2018-08-28T16:28:03.030Z,19.78
2018-08-28T16:30:33.656Z,19.84
2018-08-28T16:33:03.662Z,19.96
2018-08-28T16:35:35.320Z,19.69
2018-08-28T16:38:08.020Z,19.59
2018-08-28T16:40:38.799Z,19.61
2018-08-28T16:43:09.460Z,19.53
2018-08-28T16:45:40.178Z,19.56
2018-08-28T16:48:11.049Z,19.47
2018-08-28T16:50:42.371Z,19.40
2018-08-28T16:53:12.919Z,19.45
2018-08-28T16:55:43.974Z,19.45
2018-08-28T16:58:14.396Z,19.41
2018-08-28T17:00:45.199Z,19.34
2018-08-28T17:03:15.343Z,19.40
2018-08-28T17:05:45.516Z,19.40
2018-08-28T17:08:15.884Z,19.37
2018-08-28T17:10:46.055Z,19.35
2018-08-28T17:13:17.088Z,19.31
2018-08-28T17:15:47.673Z,19.22
2018-08-28T17:18:18.360Z,19.27
2018-08-28T17:20:48.841Z,19.32
2018-08-28T17:23:19.777Z,19.33
2018-08-28T17:25:50.000Z,19.16
2018-08-28T17:28:20.843Z,19.19
2018-08-28T17:30:52.169Z,19.22
2018-08-28T17:33:22.375Z,19.24
2018-08-28T17:35:52.737Z,19.22
2018-08-28T17:38:22.791Z,19.21
2018-08-28T17:40:53.488Z,19.08
2018-08-28T17:43:23.645Z,19.10
2018-08-28T17:45:54.703Z,19.18
2018-08-28T17:48:25.205Z,19.18
2018-08-28T17:50:56.370Z,19.18
2018-08-28T17:53:27.385Z,19.29
2018-08-28T17:55:58.088Z,19.30
2018-08-28T17:58:29.883Z,19.20
2018-08-28T18:01:00.515Z,19.20
2018-08-28T18:03:31.044Z,19.19
2018-08-28T18:06:01.750Z,19.06
2018-08-28T18:08:32.713Z,18.98
2018-08-28T18:11:03.954Z,18.97
2018-08-28T18:13:34.092Z,18.97
2018-08-28T18:16:04.911Z,18.91
2018-08-28T18:18:35.214Z,18.96
2018-08-28T18:21:05.484Z,18.95
2018-08-28T18:23:36.423Z,18.94
2018-08-28T18:26:07.215Z,18.88
2018-08-28T18:28:37.857Z,18.90
2018-08-28T18:31:08.091Z,18.95
2018-08-28T18:33:38.754Z,18.90
2018-08-28T18:36:09.446Z,18.83
2018-08-28T18:38:39.981Z,18.90
2018-08-28T18:46:44.851Z,18.78
2018-08-28T18:49:17.923Z,18.69
2018-08-28T18:51:49.419Z,18.74
2018-08-28T18:54:24.455Z,18.73
2018-08-28T18:57:01.213Z,18.72
2018-08-28T18:59:37.680Z,18.67
2018-08-28T19:08:04.438Z,18.60
2018-08-28T19:10:35.956Z,18.62
2018-08-28T19:13:14.015Z,18.57
2018-08-28T19:15:49.366Z,18.59
2018-08-28T19:18:21.333Z,18.63
2018-08-28T19:20:51.988Z,18.57
2018-08-28T19:23:22.892Z,18.56
2018-08-28T19:25:54.559Z,18.55
2018-08-28T19:28:26.339Z,18.49
2018-08-28T19:30:56.972Z,18.47
2018-08-28T19:33:27.476Z,18.46
2018-08-28T19:35:57.584Z,18.42
2018-08-28T19:38:28.916Z,18.34
2018-08-28T19:40:59.456Z,18.40
2018-08-28T19:43:29.925Z,18.34
2018-08-28T19:46:06.553Z,18.29
2018-08-28T19:48:37.070Z,18.30
2018-08-28T19:51:08.836Z,18.27
2018-08-28T19:53:39.309Z,18.23
2018-08-28T19:56:09.799Z,18.29
2018-08-28T19:58:40.221Z,18.24
2018-08-28T20:01:11.023Z,18.25
2018-08-28T20:03:41.404Z,18.21
2018-08-28T20:06:14.128Z,18.17
2018-08-28T20:08:45.573Z,18.24
2018-08-28T20:11:17.733Z,18.32
2018-08-28T20:13:55.280Z,18.27
2018-08-28T20:16:28.301Z,18.21
2018-08-28T20:19:00.041Z,18.14
2018-08-28T20:24:47.279Z,18.06
2018-08-28T20:27:30.296Z,18.11
2018-08-28T20:30:09.257Z,18.09
2018-08-28T20:32:44.834Z,18.15
2018-08-28T20:38:04.405Z,18.24
2018-08-28T20:43:27.305Z,18.26
2018-08-28T20:46:05.309Z,18.32
2018-08-28T20:48:37.199Z,18.39
2018-08-28T20:51:15.559Z,18.43
2018-08-28T20:53:48.079Z,18.50
2018-08-28T20:56:18.850Z,18.42
2018-08-28T20:58:50.578Z,18.39
2018-08-28T21:01:21.501Z,18.42
2018-08-28T21:03:52.796Z,18.45
2018-08-28T21:06:23.323Z,18.48
2018-08-28T21:08:54.263Z,18.55
2018-08-28T21:11:27.080Z,18.36
2018-08-28T21:13:58.698Z,18.24
2018-08-28T21:16:33.588Z,18.08
2018-08-28T21:19:04.928Z,18.06
2018-08-28T21:21:37.200Z,17.88
2018-08-28T21:24:09.261Z,17.79
2018-08-28T21:26:40.761Z,17.89
2018-08-28T21:29:11.903Z,17.93
2018-08-28T21:31:43.880Z,18.07
2018-08-28T21:34:15.835Z,17.72
2018-08-28T21:39:51.657Z,17.68
2018-08-28T21:42:40.973Z,17.53
2018-08-28T21:45:35.126Z,17.36
2018-08-28T21:48:20.091Z,17.41
2018-08-28T21:50:55.367Z,17.21
2018-08-28T21:56:40.821Z,17.50
2018-08-28T21:59:32.391Z,17.55
2018-08-28T22:05:38.803Z,17.51
2018-08-28T22:11:21.117Z,17.21
2018-08-28T22:25:44.417Z,17.02
2018-08-28T22:28:29.837Z,16.84
2018-08-28T22:33:57.788Z,16.75
2018-08-28T22:36:36.164Z,16.72
2018-08-28T22:39:15.639Z,16.53
2018-08-28T22:42:16.691Z,16.48
2018-08-28T22:45:05.947Z,16.41
2018-08-28T23:00:53.367Z,16.32
2018-08-28T23:03:47.215Z,16.32
2018-08-28T23:15:01.176Z,16.13
